createdAt,value
2022-08-20T00:00:09.556Z,53.92
2022-08-20T00:02:40.194Z,53.84
2022-08-20T00:05:07.080Z,53.77
2022-08-20T00:07:33.570Z,53.60
2022-08-20T00:10:01.550Z,53.77
2022-08-20T00:12:28.441Z,53.88
2022-08-20T00:14:55.037Z,53.86
2022-08-20T00:17:21.551Z,53.76
2022-08-20T00:19:48.183Z,53.76
2022-08-20T00:22:14.621Z,53.76
2022-08-20T00:24:41.124Z,53.96
2022-08-20T00:27:08.916Z,53.72
2022-08-20T00:29:35.369Z,53.75
2022-08-20T00:32:01.939Z,53.79
2022-08-20T00:34:28.726Z,53.64
2022-08-20T00:36:55.168Z,53.72
2022-08-20T00:39:21.604Z,53.54
2022-08-20T00:41:48.139Z,53.56
2022-08-20T00:44:18.843Z,53.25
2022-08-20T00:46:46.153Z,53.47
2022-08-20T00:49:16.859Z,53.56
2022-08-20T00:51:48.181Z,53.60
2022-08-20T00:54:19.211Z,53.47
2022-08-20T00:56:55.357Z,53.22
2022-08-20T00:59:27.890Z,53.27
2022-08-20T01:01:55.298Z,53.22
2022-08-20T01:04:24.130Z,53.20
2022-08-20T01:06:50.587Z,53.14
2022-08-20T01:09:17.092Z,53.10
2022-08-20T01:11:43.705Z,53.07
2022-08-20T01:14:13.450Z,53.15
2022-08-20T01:16:43.958Z,53.15
2022-08-20T01:19:29.357Z,53.09
2022-08-20T01:21:58.142Z,53.06
2022-08-20T01:24:31.683Z,52.94
2022-08-20T01:27:02.880Z,53.02
2022-08-20T01:29:36.277Z,52.76
2022-08-20T01:32:03.136Z,52.79
2022-08-20T01:34:29.646Z,52.58
2022-08-20T01:36:57.758Z,52.66
2022-08-20T01:39:26.854Z,52.62
2022-08-20T01:42:03.362Z,52.58
2022-08-20T01:44:31.376Z,52.59
2022-08-20T01:47:07.577Z,52.64
2022-08-20T01:49:35.316Z,52.48
2022-08-20T01:52:07.569Z,52.33
2022-08-20T01:54:34.569Z,52.27
2022-08-20T01:57:05.527Z,52.02
2022-08-20T01:59:32.489Z,52.11
2022-08-20T02:01:59.650Z,51.81
2022-08-20T02:04:26.158Z,52.06
2022-08-20T02:06:57.882Z,51.97
2022-08-20T02:09:26.230Z,51.90
2022-08-20T02:11:52.745Z,51.76
2022-08-20T02:14:20.730Z,51.94
2022-08-20T02:16:54.775Z,51.95
2022-08-20T02:19:26.542Z,51.81
2022-08-20T02:21:57.100Z,51.55
2022-08-20T02:24:23.776Z,51.43
2022-08-20T02:26:52.094Z,51.49
2022-08-20T02:29:19.995Z,51.37
2022-08-20T02:32:28.376Z,51.30
2022-08-20T02:34:33.670Z,51.44
2022-08-20T02:37:00.438Z,51.42
2022-08-20T02:39:27.153Z,51.46
2022-08-20T02:41:53.803Z,51.33
2022-08-20T02:44:21.583Z,51.56
2022-08-20T02:46:49.083Z,51.32
2022-08-20T02:49:18.016Z,51.48
2022-08-20T02:51:44.995Z,51.11
2022-08-20T02:54:12.299Z,51.23
2022-08-20T02:56:39.927Z,50.92
2022-08-20T02:59:06.723Z,51.01
2022-08-20T03:01:34.535Z,51.00
2022-08-20T03:04:01.072Z,51.10
2022-08-20T03:06:27.744Z,50.74
2022-08-20T03:08:54.373Z,50.78
2022-08-20T03:11:21.047Z,50.67
2022-08-20T03:13:47.943Z,50.77
2022-08-20T03:16:14.786Z,50.56
2022-08-20T03:18:45.567Z,50.60
2022-08-20T03:21:14.861Z,50.47
2022-08-20T03:23:42.942Z,50.52
2022-08-20T03:26:11.983Z,50.58
2022-08-20T03:28:38.704Z,50.28
2022-08-20T03:31:05.663Z,50.38
2022-08-20T03:33:32.842Z,50.34
2022-08-20T03:36:00.733Z,50.29
2022-08-20T03:38:32.992Z,50.28
2022-08-20T03:41:00.665Z,50.21
2022-08-20T03:43:27.218Z,50.12
2022-08-20T03:45:53.779Z,50.31
2022-08-20T03:48:21.320Z,49.94
2022-08-20T03:50:49.968Z,50.06
2022-08-20T03:53:18.405Z,49.89
2022-08-20T03:55:54.071Z,49.78
2022-08-20T03:58:33.256Z,49.73
2022-08-20T04:01:05.237Z,49.79
2022-08-20T04:03:32.036Z,49.72
2022-08-20T04:05:58.536Z,49.62
2022-08-20T04:08:28.337Z,49.66
2022-08-20T04:10:56.021Z,49.57
2022-08-20T04:13:22.753Z,49.59
2022-08-20T04:15:50.377Z,49.53
2022-08-20T04:18:17.503Z,49.64
2022-08-20T04:20:43.947Z,49.64
2022-08-20T04:23:10.722Z,49.48
2022-08-20T04:25:38.685Z,49.52
2022-08-20T04:28:14.383Z,49.63
2022-08-20T04:30:41.425Z,49.41
2022-08-20T04:33:14.058Z,49.42
2022-08-20T04:35:45.722Z,49.42
2022-08-20T04:38:15.480Z,49.30
2022-08-20T04:40:44.217Z,49.25
2022-08-20T04:43:10.771Z,49.25
2022-08-20T04:45:39.541Z,49.20
2022-08-20T04:48:09.569Z,49.15
2022-08-20T04:50:39.575Z,49.30
2022-08-20T04:53:10.035Z,49.25
2022-08-20T04:55:38.496Z,49.33
2022-08-20T04:58:10.104Z,49.39
2022-08-20T05:00:37.948Z,49.27
2022-08-20T05:03:04.679Z,49.18
2022-08-20T05:05:31.230Z,49.15
2022-08-20T05:07:57.793Z,49.17
2022-08-20T05:10:24.537Z,48.99
2022-08-20T05:12:56.770Z,49.04
2022-08-20T05:15:25.103Z,48.85
2022-08-20T05:17:56.909Z,48.77
2022-08-20T05:20:23.560Z,48.90
2022-08-20T05:22:50.011Z,48.69
2022-08-20T05:25:16.682Z,48.65
2022-08-20T05:27:47.643Z,48.83
2022-08-20T05:30:14.842Z,48.81
2022-08-20T05:32:44.700Z,48.91
2022-08-20T05:35:11.418Z,48.87
2022-08-20T05:37:39.622Z,48.70
2022-08-20T05:40:09.360Z,48.91
2022-08-20T05:42:35.883Z,48.84
2022-08-20T05:45:02.383Z,48.99
2022-08-20T05:47:42.935Z,49.18
2022-08-20T05:50:23.249Z,49.15
2022-08-20T05:52:50.695Z,49.15
2022-08-20T05:55:17.195Z,49.19
2022-08-20T05:57:43.769Z,49.61
2022-08-20T06:00:13.449Z,49.37
2022-08-20T06:02:40.300Z,49.45
2022-08-20T06:05:07.191Z,49.63
2022-08-20T06:07:34.957Z,49.80
2022-08-20T06:10:01.565Z,49.94
2022-08-20T06:12:28.022Z,49.91
2022-08-20T06:14:54.487Z,50.05
2022-08-20T06:17:22.146Z,50.16
2022-08-20T06:19:49.210Z,50.25
2022-08-20T06:22:20.792Z,50.29
2022-08-20T06:24:54.833Z,50.28
2022-08-20T06:27:22.374Z,50.58
2022-08-20T06:29:49.373Z,50.67
2022-08-20T06:32:16.119Z,50.86
2022-08-20T06:34:49.596Z,50.88
2022-08-20T06:37:19.572Z,51.12
2022-08-20T06:39:47.006Z,51.10
2022-08-20T06:42:15.180Z,51.36
2022-08-20T06:44:47.573Z,51.72
2022-08-20T06:47:14.011Z,51.88
2022-08-20T06:49:40.522Z,51.99
2022-08-20T06:52:07.146Z,51.94
2022-08-20T06:54:38.127Z,52.02
2022-08-20T06:57:05.002Z,52.20
2022-08-20T06:59:32.948Z,52.40
2022-08-20T07:01:59.490Z,52.62
2022-08-20T07:04:26.982Z,52.53
2022-08-20T07:06:54.425Z,52.75
2022-08-20T07:09:21.683Z,53.11
2022-08-20T07:11:48.875Z,53.21
2022-08-20T07:14:15.765Z,53.28
2022-08-20T07:16:44.291Z,53.73
2022-08-20T07:19:10.835Z,53.85
2022-08-20T07:21:37.280Z,53.93
2022-08-20T07:24:04.222Z,54.24
2022-08-20T07:26:30.762Z,54.22
2022-08-20T07:28:57.253Z,54.51
2022-08-20T07:31:23.787Z,54.65
2022-08-20T07:33:51.758Z,54.87
2022-08-20T07:36:19.722Z,54.97
2022-08-20T07:38:46.169Z,55.44
2022-08-20T07:41:13.476Z,55.35
2022-08-20T07:43:41.145Z,55.86
2022-08-20T07:46:08.822Z,55.89
2022-08-20T07:48:36.927Z,56.00
2022-08-20T07:51:05.980Z,56.08
2022-08-20T07:53:35.641Z,56.09
2022-08-20T07:56:04.781Z,55.77
2022-08-20T07:58:33.426Z,56.28
2022-08-20T08:01:00.690Z,56.61
2022-08-20T08:03:40.857Z,56.60
2022-08-20T08:06:15.153Z,56.33
2022-08-20T08:08:44.800Z,56.97
2022-08-20T08:11:12.140Z,56.77
2022-08-20T08:13:41.314Z,57.18
2022-08-20T08:16:10.027Z,57.26
2022-08-20T08:18:41.302Z,56.76
2022-08-20T08:21:09.595Z,57.16
2022-08-20T08:23:37.444Z,57.38
2022-08-20T08:26:03.983Z,57.39
2022-08-20T08:28:30.468Z,57.47
2022-08-20T08:30:56.992Z,57.83
2022-08-20T08:33:25.255Z,57.59
2022-08-20T08:35:52.340Z,57.56
2022-08-20T08:38:18.774Z,57.95
2022-08-20T08:40:46.634Z,57.41
2022-08-20T08:43:21.401Z,58.10
2022-08-20T08:45:58.006Z,57.84
2022-08-20T08:48:31.689Z,58.29
2022-08-20T08:50:59.976Z,58.25
2022-08-20T08:53:30.884Z,58.66
2022-08-20T08:55:59.639Z,58.52
2022-08-20T08:58:26.143Z,58.12
2022-08-20T09:00:56.048Z,58.33
2022-08-20T09:03:27.796Z,58.41
2022-08-20T09:05:57.235Z,57.66
2022-08-20T09:08:26.389Z,57.65
2022-08-20T09:10:52.921Z,57.78
2022-08-20T09:13:20.802Z,57.63
2022-08-20T09:15:47.231Z,57.70
2022-08-20T09:18:13.719Z,57.67
2022-08-20T09:20:40.281Z,57.60
2022-08-20T09:23:06.762Z,57.55
2022-08-20T09:25:33.463Z,57.57
2022-08-20T09:28:00.053Z,57.21
2022-08-20T09:30:27.786Z,57.00
2022-08-20T09:32:54.294Z,57.05
2022-08-20T09:35:21.032Z,57.05
2022-08-20T09:37:50.125Z,57.00
2022-08-20T09:40:21.318Z,56.96
2022-08-20T09:42:49.173Z,57.02
2022-08-20T09:45:15.756Z,56.78
2022-08-20T09:47:55.178Z,56.85
2022-08-20T09:50:24.597Z,56.82
2022-08-20T09:52:53.706Z,56.29
2022-08-20T09:55:24.377Z,56.53
2022-08-20T09:57:51.561Z,56.43
2022-08-20T10:00:18.776Z,56.25
2022-08-20T10:02:47.627Z,56.31
2022-08-20T10:05:14.258Z,56.06
2022-08-20T10:07:41.219Z,55.98
2022-08-20T10:10:10.615Z,55.94
2022-08-20T10:12:37.354Z,56.22
2022-08-20T10:15:04.858Z,55.93
2022-08-20T10:17:31.251Z,56.03
2022-08-20T10:19:59.150Z,55.72
2022-08-20T10:22:25.582Z,55.74
2022-08-20T10:24:52.122Z,55.76
2022-08-20T10:27:18.634Z,55.76
2022-08-20T10:29:47.065Z,55.70
2022-08-20T10:32:16.307Z,55.70
2022-08-20T10:34:45.149Z,55.69
2022-08-20T10:37:17.247Z,55.41
2022-08-20T10:39:44.616Z,55.45
2022-08-20T10:42:11.293Z,55.35
2022-08-20T10:44:38.293Z,55.25
2022-08-20T10:47:17.631Z,55.23
2022-08-20T10:49:44.163Z,54.87
2022-08-20T10:52:10.949Z,55.01
2022-08-20T10:54:38.997Z,55.14
2022-08-20T10:57:05.903Z,55.48
2022-08-20T10:59:32.397Z,55.25
2022-08-20T11:01:58.921Z,55.42
2022-08-20T11:04:25.519Z,55.51
2022-08-20T11:06:51.987Z,55.44
2022-08-20T11:09:18.451Z,55.31
2022-08-20T11:11:46.164Z,55.26
2022-08-20T11:14:12.684Z,55.08
2022-08-20T11:16:39.281Z,55.30
2022-08-20T11:19:05.756Z,55.33
2022-08-20T11:21:32.273Z,55.20
2022-08-20T11:24:02.586Z,55.18
2022-08-20T11:26:29.548Z,55.24
2022-08-20T11:28:57.382Z,55.06
2022-08-20T11:31:23.863Z,55.11
2022-08-20T11:33:50.333Z,55.25
2022-08-20T11:36:16.917Z,55.25
2022-08-20T11:38:43.397Z,55.32
2022-08-20T11:41:09.873Z,54.95
2022-08-20T11:43:36.315Z,54.95
2022-08-20T11:46:04.069Z,54.77
2022-08-20T11:48:30.678Z,54.74
2022-08-20T11:50:57.149Z,54.44
2022-08-20T11:53:23.558Z,54.64
2022-08-20T11:55:50.210Z,54.68
2022-08-20T11:58:16.826Z,54.60
2022-08-20T12:00:43.393Z,54.59
2022-08-20T12:03:12.147Z,54.64
2022-08-20T12:05:40.235Z,54.52
2022-08-20T12:08:07.426Z,54.65
2022-08-20T12:10:34.040Z,54.64
2022-08-20T12:13:00.529Z,54.54
2022-08-20T12:15:31.173Z,54.36
2022-08-20T12:17:57.667Z,54.42
2022-08-20T12:20:25.601Z,54.62
2022-08-20T12:22:52.165Z,54.75
2022-08-20T12:25:18.723Z,54.74
2022-08-20T12:27:46.500Z,54.70
2022-08-20T12:30:15.771Z,54.64
2022-08-20T12:32:42.557Z,54.74
2022-08-20T12:35:10.974Z,54.56
2022-08-20T12:37:39.685Z,54.46
2022-08-20T12:40:10.278Z,54.43
2022-08-20T12:42:36.996Z,54.21
2022-08-20T12:45:04.320Z,54.29
2022-08-20T12:47:33.180Z,54.33
2022-08-20T12:50:04.386Z,54.09
2022-08-20T12:52:32.001Z,54.06
2022-08-20T12:55:00.632Z,54.22
2022-08-20T12:57:30.152Z,53.72
2022-08-20T12:59:57.746Z,53.92
2022-08-20T13:02:25.975Z,53.96
2022-08-20T13:04:52.530Z,53.85
2022-08-20T13:07:19.349Z,53.83
2022-08-20T13:09:45.869Z,53.76
2022-08-20T13:12:13.724Z,53.89
2022-08-20T13:14:40.427Z,53.78
2022-08-20T13:17:07.436Z,53.63
2022-08-20T13:19:36.856Z,53.47
2022-08-20T13:22:04.379Z,53.75
2022-08-20T13:24:30.957Z,53.76
2022-08-20T13:27:04.493Z,53.53
2022-08-20T13:29:32.262Z,53.74
2022-08-20T13:31:58.709Z,53.62
2022-08-20T13:34:25.187Z,53.59
2022-08-20T13:36:51.768Z,53.53
2022-08-20T13:39:18.258Z,53.52
2022-08-20T13:41:44.730Z,53.31
2022-08-20T13:44:11.287Z,53.54
2022-08-20T13:46:39.155Z,53.32
2022-08-20T13:49:05.641Z,53.33
2022-08-20T13:51:32.076Z,53.20
2022-08-20T13:53:59.412Z,53.34
2022-08-20T13:56:25.858Z,53.18
2022-08-20T13:58:53.121Z,53.29
2022-08-20T14:01:19.748Z,53.51
2022-08-20T14:03:47.499Z,53.27
2022-08-20T14:06:13.971Z,53.17
2022-08-20T14:08:40.492Z,53.17
2022-08-20T14:11:06.952Z,53.03
2022-08-20T14:13:39.195Z,52.97
2022-08-20T14:16:06.047Z,52.87
2022-08-20T14:18:52.694Z,52.47
2022-08-20T14:21:19.472Z,52.63
2022-08-20T14:23:45.911Z,52.57
2022-08-20T14:26:12.414Z,52.66
2022-08-20T14:28:38.874Z,52.65
2022-08-20T14:31:05.485Z,52.66
2022-08-20T14:33:31.965Z,52.67
2022-08-20T14:35:59.656Z,52.54
2022-08-20T14:38:26.126Z,52.51
2022-08-20T14:40:52.761Z,52.63
2022-08-20T14:43:19.491Z,52.49
2022-08-20T14:45:45.950Z,52.56
2022-08-20T14:48:12.520Z,52.53
2022-08-20T14:50:39.444Z,52.42
2022-08-20T14:53:08.355Z,52.28
2022-08-20T14:55:36.677Z,52.39
2022-08-20T14:58:06.811Z,52.32
2022-08-20T15:00:33.448Z,52.19
2022-08-20T15:03:00.091Z,52.18
2022-08-20T15:05:27.509Z,52.15
2022-08-20T15:07:57.183Z,52.31
2022-08-20T15:10:27.624Z,52.49
2022-08-20T15:12:54.625Z,52.23
2022-08-20T15:15:21.833Z,52.55
2022-08-20T15:17:50.597Z,52.55
2022-08-20T15:20:21.165Z,52.39
2022-08-20T15:22:49.588Z,52.65
2022-08-20T15:25:19.274Z,52.59
2022-08-20T15:27:47.325Z,52.83
2022-08-20T15:30:17.561Z,52.44
2022-08-20T15:32:44.064Z,52.49
2022-08-20T15:35:10.645Z,52.55
2022-08-20T15:37:39.585Z,52.38
2022-08-20T15:40:07.640Z,52.50
2022-08-20T15:42:34.387Z,52.43
2022-08-20T15:45:02.297Z,52.49
2022-08-20T15:47:31.350Z,52.55
2022-08-20T15:50:02.291Z,52.54
2022-08-20T15:52:34.460Z,52.64
2022-08-20T15:55:01.771Z,52.58
2022-08-20T15:57:39.345Z,52.73
2022-08-20T16:00:12.062Z,52.70
2022-08-20T16:02:55.076Z,52.51
2022-08-20T16:05:30.699Z,52.67
2022-08-20T16:08:07.489Z,52.67
2022-08-20T16:10:46.225Z,52.67
2022-08-20T16:13:28.919Z,52.69
2022-08-20T16:15:59.429Z,52.74
2022-08-20T16:18:30.431Z,52.69
2022-08-20T16:21:00.658Z,52.60
2022-08-20T16:23:33.552Z,52.93
2022-08-20T16:26:15.817Z,53.01
2022-08-20T16:28:51.955Z,53.13
2022-08-20T16:31:27.831Z,52.89
2022-08-20T16:34:04.785Z,52.96
2022-08-20T16:37:03.160Z,52.97
2022-08-20T16:39:37.158Z,52.96
2022-08-20T16:42:08.062Z,52.96
2022-08-20T16:44:36.409Z,53.37
2022-08-20T16:47:14.755Z,53.01
2022-08-20T16:49:47.964Z,53.12
2022-08-20T16:52:14.399Z,53.01
2022-08-20T16:54:43.941Z,53.02
2022-08-20T16:57:16.673Z,53.01
2022-08-20T16:59:55.714Z,53.07
2022-08-20T17:02:24.460Z,53.02
2022-08-20T17:04:59.877Z,52.96
2022-08-20T17:07:29.894Z,53.03
2022-08-20T17:10:10.783Z,52.98
2022-08-20T17:12:37.514Z,52.83
2022-08-20T17:15:05.424Z,52.77
2022-08-20T17:17:36.934Z,53.00
2022-08-20T17:20:14.447Z,52.87
2022-08-20T17:22:50.332Z,52.63
2022-08-20T17:25:20.717Z,52.73
2022-08-20T17:27:47.700Z,52.87
2022-08-20T17:30:22.900Z,52.83
2022-08-20T17:32:57.554Z,52.72
2022-08-20T17:35:29.590Z,52.67
2022-08-20T17:37:57.593Z,52.92
2022-08-20T17:40:30.266Z,52.75
2022-08-20T17:43:00.467Z,52.73
2022-08-20T17:45:34.099Z,52.65
2022-08-20T17:48:05.151Z,52.59
2022-08-20T17:50:34.913Z,52.69
2022-08-20T17:53:10.585Z,52.76
2022-08-20T17:55:37.867Z,52.60
2022-08-20T17:58:10.746Z,52.82
2022-08-20T18:00:37.537Z,52.70
2022-08-20T18:03:15.887Z,52.81
2022-08-20T18:05:44.741Z,52.55
2022-08-20T18:08:20.424Z,52.75
2022-08-20T18:10:56.922Z,52.81
2022-08-20T18:13:44.949Z,52.92
2022-08-20T18:16:23.479Z,52.76
2022-08-20T18:18:57.491Z,52.85
2022-08-20T18:21:44.770Z,52.74
2022-08-20T18:24:14.639Z,52.71
2022-08-20T18:26:46.453Z,52.90
2022-08-20T18:29:16.923Z,52.81
2022-08-20T18:31:46.760Z,53.01
2022-08-20T18:34:16.710Z,53.06
2022-08-20T18:36:54.206Z,53.03
2022-08-20T18:39:26.480Z,53.08
2022-08-20T18:41:59.884Z,53.07
2022-08-20T18:44:29.682Z,53.06
2022-08-20T18:47:01.225Z,53.13
2022-08-20T18:49:31.641Z,53.31
2022-08-20T18:52:07.612Z,53.43
2022-08-20T18:54:35.455Z,53.20
2022-08-20T18:57:05.222Z,53.43
2022-08-20T18:59:37.818Z,53.34
2022-08-20T19:02:16.269Z,53.33
2022-08-20T19:04:47.355Z,53.38
2022-08-20T19:07:20.377Z,53.65
2022-08-20T19:10:08.844Z,53.63
2022-08-20T19:13:00.024Z,53.67
2022-08-20T19:15:27.417Z,53.56
2022-08-20T19:18:03.166Z,53.71
2022-08-20T19:20:33.690Z,53.80
2022-08-20T19:23:05.662Z,53.93
2022-08-20T19:25:35.961Z,53.88
2022-08-20T19:28:07.182Z,54.08
2022-08-20T19:30:38.023Z,54.21
2022-08-20T19:33:05.587Z,54.45
2022-08-20T19:35:34.125Z,54.28
2022-08-20T19:38:01.066Z,54.26
2022-08-20T19:40:31.339Z,54.37
2022-08-20T19:43:01.546Z,54.69
2022-08-20T19:45:35.611Z,54.69
2022-08-20T19:48:16.852Z,54.90
2022-08-20T19:51:02.866Z,54.84
2022-08-20T19:53:31.985Z,54.96
2022-08-20T19:56:00.406Z,55.06
2022-08-20T19:58:27.707Z,54.96
2022-08-20T20:00:55.430Z,55.11
2022-08-20T20:03:23.949Z,55.17
2022-08-20T20:05:55.845Z,55.21
2022-08-20T20:08:27.483Z,55.16
2022-08-20T20:10:57.970Z,55.27
2022-08-20T20:13:29.875Z,55.29
2022-08-20T20:16:02.981Z,55.19
2022-08-20T20:18:33.746Z,55.52
2022-08-20T20:21:12.484Z,55.41
2022-08-20T20:23:46.889Z,55.45
2022-08-20T20:26:17.758Z,55.43
2022-08-20T20:28:46.877Z,55.30
2022-08-20T20:31:21.074Z,55.55
2022-08-20T20:33:52.894Z,55.52
2022-08-20T20:36:32.063Z,55.58
2022-08-20T20:39:01.838Z,55.53
2022-08-20T20:41:29.581Z,55.45
2022-08-20T20:44:01.111Z,55.80
2022-08-20T20:46:30.849Z,55.84
2022-08-20T20:49:00.663Z,55.75
2022-08-20T20:51:30.029Z,55.84
2022-08-20T20:53:59.863Z,55.76
2022-08-20T20:56:32.134Z,55.89
2022-08-20T20:59:03.978Z,55.96
2022-08-20T21:01:41.445Z,55.78
2022-08-20T21:04:16.371Z,55.83
2022-08-20T21:06:42.870Z,55.75
2022-08-20T21:09:09.332Z,55.88
2022-08-20T21:11:37.340Z,56.03
2022-08-20T21:14:03.811Z,56.05
2022-08-20T21:16:30.266Z,56.20
2022-08-20T21:18:56.784Z,56.03
2022-08-20T21:21:23.243Z,56.15
2022-08-20T21:23:49.803Z,56.27
2022-08-20T21:26:16.386Z,56.27
2022-08-20T21:28:44.218Z,56.21
2022-08-20T21:31:10.688Z,56.28
2022-08-20T21:33:37.171Z,56.15
2022-08-20T21:36:04.171Z,56.14
2022-08-20T21:38:30.634Z,56.27
2022-08-20T21:40:58.089Z,56.43
2022-08-20T21:43:24.765Z,56.33
2022-08-20T21:45:52.524Z,56.49
2022-08-20T21:48:19.267Z,56.59
2022-08-20T21:50:45.772Z,56.55
2022-08-20T21:53:13.290Z,56.59
2022-08-20T21:55:40.749Z,56.47
2022-08-20T21:58:08.380Z,56.47
2022-08-20T22:00:50.256Z,56.63
2022-08-20T22:03:20.086Z,56.73
2022-08-20T22:05:47.902Z,56.48
2022-08-20T22:08:14.495Z,56.52
2022-08-20T22:10:41.069Z,56.66
2022-08-20T22:13:07.671Z,56.67
2022-08-20T22:15:34.253Z,56.81
2022-08-20T22:18:00.743Z,56.73
2022-08-20T22:20:28.673Z,56.94
2022-08-20T22:22:55.441Z,56.68
2022-08-20T22:25:22.073Z,56.85
2022-08-20T22:27:48.884Z,56.73
2022-08-20T22:30:15.355Z,56.62
2022-08-20T22:32:51.948Z,56.69
2022-08-20T22:35:19.252Z,56.64
2022-08-20T22:37:47.030Z,56.48
2022-08-20T22:40:13.619Z,56.57
2022-08-20T22:42:40.166Z,56.45
2022-08-20T22:45:11.728Z,56.50
2022-08-20T22:47:42.961Z,56.60
2022-08-20T22:50:10.832Z,56.54
2022-08-20T22:52:38.884Z,56.38
2022-08-20T22:55:07.408Z,56.48
2022-08-20T22:57:36.428Z,56.25
2022-08-20T23:00:05.802Z,56.43
2022-08-20T23:02:32.370Z,56.57
2022-08-20T23:04:58.874Z,56.48
2022-08-20T23:07:25.942Z,56.72
2022-08-20T23:09:52.435Z,56.43
2022-08-20T23:12:20.202Z,56.57
2022-08-20T23:14:46.685Z,56.59
2022-08-20T23:17:15.707Z,56.30
2022-08-20T23:19:43.584Z,56.30
2022-08-20T23:22:11.359Z,56.46
2022-08-20T23:24:38.309Z,56.34
2022-08-20T23:27:05.691Z,56.31
2022-08-20T23:29:33.884Z,56.13
2022-08-20T23:32:00.586Z,56.20
2022-08-20T23:34:27.357Z,55.88
2022-08-20T23:36:55.638Z,55.91
2022-08-20T23:39:22.633Z,55.95
2022-08-20T23:41:49.387Z,55.96
2022-08-20T23:44:25.736Z,55.94
2022-08-20T23:46:55.450Z,55.90
2022-08-20T23:49:23.131Z,55.82
2022-08-20T23:51:49.681Z,55.77
2022-08-20T23:54:16.192Z,55.48
2022-08-20T23:56:42.711Z,55.72
2022-08-20T23:59:09.237Z,55.71
